Max Meadows, Virginia
Current Conditions -  °F | °C
As of 9:15 PM on Saturday 22 Nov 2014 (Local Time) from KHLX Reporting Station
Clear Clear  
Wind Chill: 32°   Ceiling: Unl
Heat Index: 38°   Visibility: 10mi
Dew Point: 18°   Wind: 8mph
Humidity: 45%   Direction: 170°S
Pressure: 30.27"   Gusts: NA
Location:  36.97°N, 80.95°W
Report Text: KHLX 230215Z AUTO 17007KT 10SM CLR 03/M08 A3027 RMK AO2 T00311078
Loading
Personal Weather Stations






























Interactive Weather Map New forecast layout! Learn more

10-Day Weather Forecast

Advertisements
Track Severe Weather on mobile